Time;durP1;ratioP1;P1;durP2;ratioP2;P2;SDS_P1;SDS_P2;PMS_P1;PMS_P2;Temp;Humidity;BMP_temperature;BMP_pressure;BME280_temperature;BME280_humidity;BME280_pressure;Samples;Min_cycle;Max_cycle;Signal;HPM_P1;HPM_P2
2023/06/27 00:00:10;;;;;;;6.70;2.77;;;15.50;99.90;;;;;;5052614;28;20444;-61
2023/06/27 00:02:38;;;;;;;6.77;2.83;;;15.50;99.90;;;;;;5052753;28;20432;-62
2023/06/27 00:05:05;;;;;;;5.83;2.77;;;15.40;99.90;;;;;;5052375;28;20507;-61
2023/06/27 00:07:32;;;;;;;4.07;2.93;;;15.40;99.90;;;;;;5052756;28;20433;-63
2023/06/27 00:09:59;;;;;;;7.30;2.83;;;15.40;99.90;;;;;;5052351;28;20448;-62
2023/06/27 00:12:25;;;;;;;6.23;3.20;;;15.40;99.90;;;;;;5052539;28;20488;-62
2023/06/27 00:14:54;;;;;;;5.67;2.80;;;15.30;99.90;;;;;;5052138;28;20970;-62
2023/06/27 00:17:24;;;;;;;10.00;3.40;;;15.20;99.90;;;;;;5052635;28;20570;-62
2023/06/27 00:19:58;;;;;;;6.00;3.30;;;15.20;99.90;;;;;;5052354;28;20448;-62
2023/06/27 00:22:26;;;;;;;6.27;3.40;;;15.20;99.90;;;;;;5052314;28;20804;-61
2023/06/27 00:24:53;;;;;;;6.60;2.93;;;15.10;99.90;;;;;;5052569;28;20452;-62
2023/06/27 00:27:20;;;;;;;7.03;2.93;;;15.10;99.90;;;;;;5054225;28;20444;-62
2023/06/27 00:29:47;;;;;;;7.63;3.40;;;15.10;99.90;;;;;;5056672;28;20826;-62
2023/06/27 00:32:14;;;;;;;4.80;3.10;;;15.10;99.90;;;;;;5056313;28;20448;-61
2023/06/27 00:34:42;;;;;;;5.10;2.97;;;15.00;99.90;;;;;;5056554;28;20448;-60
2023/06/27 00:37:09;;;;;;;6.70;2.60;;;15.00;99.90;;;;;;5056628;28;20631;-61
2023/06/27 00:39:35;;;;;;;4.97;3.10;;;14.90;99.90;;;;;;5056578;28;20440;-62
2023/06/27 00:42:02;;;;;;;6.40;3.50;;;14.90;99.90;;;;;;5056343;28;20520;-61
2023/06/27 00:44:29;;;;;;;6.93;3.23;;;14.90;99.90;;;;;;5056580;28;20443;-62
2023/06/27 00:46:56;;;;;;;8.63;3.20;;;14.80;99.90;;;;;;5056633;28;20436;-61
2023/06/27 00:49:23;;;;;;;3.70;2.80;;;14.80;99.90;;;;;;5056183;28;20499;-61
2023/06/27 00:51:54;;;;;;;6.03;3.27;;;14.80;99.90;;;;;;5055758;28;20843;-62
2023/06/27 00:54:21;;;;;;;4.40;3.00;;;14.70;99.90;;;;;;5055936;28;20436;-62
2023/06/27 00:56:52;;;;;;;6.83;3.00;;;14.70;99.90;;;;;;5055982;28;20486;-62
2023/06/27 00:59:19;;;;;;;5.00;2.70;;;14.70;99.90;;;;;;5056134;28;20432;-61
2023/06/27 01:01:46;;;;;;;6.20;4.03;;;14.70;99.90;;;;;;5055883;28;20464;-61
2023/06/27 01:04:13;;;;;;;10.03;3.10;;;14.70;99.90;;;;;;5055983;28;20497;-62
2023/06/27 01:06:58;;;;;;;8.77;3.13;;;14.60;99.90;;;;;;5055561;28;20934;-61
2023/06/27 01:09:31;;;;;;;6.10;3.90;;;14.60;99.90;;;;;;5055609;28;20434;-62
2023/06/27 01:12:06;;;;;;;4.53;2.80;;;14.60;99.90;;;;;;5055251;28;20551;-62
2023/06/27 01:14:34;;;;;;;6.03;2.77;;;14.50;99.90;;;;;;5056177;28;20424;-61
2023/06/27 01:17:03;;;;;;;7.77;2.70;;;14.50;99.90;;;;;;5055138;28;20997;-61
2023/06/27 01:19:33;;;;;;;6.60;3.00;;;14.50;99.90;;;;;;5055782;28;21000;-61
2023/06/27 01:22:04;;;;;;;4.03;1.87;;;14.50;99.90;;;;;;5055631;28;20581;-61
2023/06/27 01:24:33;;;;;;;6.50;2.70;;;14.40;99.90;;;;;;5056664;28;20482;-60
2023/06/27 01:27:01;;;;;;;5.13;2.67;;;14.40;99.90;;;;;;5055333;28;20490;-62
2023/06/27 01:29:29;;;;;;;6.57;2.70;;;14.40;99.90;;;;;;5056478;28;20801;-60
2023/06/27 01:32:03;;;;;;;5.50;2.10;;;14.40;99.90;;;;;;5055298;28;20460;-60
2023/06/27 01:34:33;;;;;;;5.93;3.10;;;14.40;99.90;;;;;;5055517;28;20427;-61
2023/06/27 01:37:06;;;;;;;5.10;3.27;;;14.30;99.90;;;;;;5055385;28;20460;-61
2023/06/27 01:39:39;;;;;;;5.60;2.97;;;14.30;99.90;;;;;;5054546;28;20429;-62
2023/06/27 01:42:14;;;;;;;2.60;2.33;;;14.30;99.90;;;;;;5055062;28;20472;-62
2023/06/27 01:44:42;;;;;;;5.90;2.40;;;14.30;99.90;;;;;;5054924;28;20435;-62
2023/06/27 01:47:11;;;;;;;6.90;3.20;;;14.20;99.90;;;;;;5055428;28;20479;-62
2023/06/27 01:49:38;;;;;;;3.10;2.10;;;14.20;99.90;;;;;;5055228;28;20445;-62
2023/06/27 01:52:05;;;;;;;3.50;2.30;;;14.20;99.90;;;;;;5055116;28;20475;-63
2023/06/27 01:54:33;;;;;;;2.67;2.33;;;14.10;99.90;;;;;;5055155;28;20444;-62
2023/06/27 01:57:00;;;;;;;5.70;2.43;;;14.10;99.90;;;;;;5055303;28;20482;-61
2023/06/27 01:59:27;;;;;;;5.23;2.53;;;14.10;99.90;;;;;;5054786;28;20444;-62
2023/06/27 02:01:54;;;;;;;7.37;2.90;;;14.00;99.90;;;;;;5054544;28;20464;-61
2023/06/27 02:04:20;;;;;;;4.57;2.40;;;14.00;99.90;;;;;;5055190;28;20448;-61
2023/06/27 02:06:47;;;;;;;3.60;2.80;;;14.00;99.90;;;;;;5055006;28;20439;-63
2023/06/27 02:09:14;;;;;;;2.70;2.20;;;13.90;99.90;;;;;;5055241;28;20440;-62
2023/06/27 02:11:42;;;;;;;4.70;2.20;;;13.90;99.90;;;;;;5054862;28;20502;-61
2023/06/27 02:14:09;;;;;;;4.87;2.80;;;13.90;99.90;;;;;;5055274;28;20451;-62
2023/06/27 02:16:35;;;;;;;5.43;1.97;;;13.90;99.90;;;;;;5054438;28;20453;-61
2023/06/27 02:19:02;;;;;;;5.30;2.10;;;13.80;99.90;;;;;;5055154;28;20440;-62
2023/06/27 02:21:29;;;;;;;5.27;2.23;;;13.80;99.90;;;;;;5054236;28;20467;-61
2023/06/27 02:23:56;;;;;;;4.17;2.00;;;13.80;99.90;;;;;;5054486;28;20816;-61
2023/06/27 02:26:22;;;;;;;2.23;2.00;;;13.80;99.90;;;;;;5054341;28;20451;-61
2023/06/27 02:28:51;;;;;;;3.43;2.33;;;13.70;99.90;;;;;;5054163;28;20538;-61
2023/06/27 02:31:18;;;;;;;3.03;2.73;;;13.70;99.90;;;;;;5054387;28;20467;-62
2023/06/27 02:33:45;;;;;;;7.23;2.20;;;13.70;99.90;;;;;;5054357;28;20479;-60
2023/06/27 02:36:12;;;;;;;3.60;2.13;;;13.70;99.90;;;;;;5054274;28;20444;-62
2023/06/27 02:38:39;;;;;;;4.53;1.87;;;13.70;99.90;;;;;;5054196;28;20502;-62
2023/06/27 02:41:06;;;;;;;4.97;2.27;;;13.70;99.90;;;;;;5054118;28;20460;-62
2023/06/27 02:43:33;;;;;;;4.27;2.47;;;13.70;99.90;;;;;;5054082;28;20448;-62
2023/06/27 02:46:01;;;;;;;8.67;2.57;;;13.70;99.90;;;;;;5053744;28;20812;-62
2023/06/27 02:48:28;;;;;;;4.50;2.03;;;13.70;99.90;;;;;;5054091;28;20470;-62
2023/06/27 02:50:56;;;;;;;8.60;2.80;;;13.70;99.90;;;;;;5052507;28;20812;-62
2023/06/27 02:53:23;;;;;;;3.03;2.47;;;13.70;99.90;;;;;;5054472;28;20488;-62
2023/06/27 02:55:50;;;;;;;5.70;2.40;;;13.70;99.90;;;;;;5054606;28;20444;-61
2023/06/27 02:58:17;;;;;;;4.80;2.30;;;13.70;99.90;;;;;;5053492;28;20494;-62
2023/06/27 03:00:44;;;;;;;8.47;3.07;;;13.60;99.90;;;;;;5053594;28;20468;-62
2023/06/27 03:03:12;;;;;;;3.10;1.90;;;13.60;99.90;;;;;;5054294;28;20454;-61
2023/06/27 03:05:39;;;;;;;3.30;1.97;;;13.60;99.90;;;;;;5054799;28;20444;-62
2023/06/27 03:08:06;;;;;;;7.40;3.00;;;13.60;99.90;;;;;;5054000;28;20491;-61
2023/06/27 03:10:32;;;;;;;4.37;2.97;;;13.70;99.90;;;;;;5053130;28;20511;-61
2023/06/27 03:13:00;;;;;;;1.90;1.67;;;13.70;99.90;;;;;;5052963;28;20436;-62
2023/06/27 03:15:26;;;;;;;2.83;2.37;;;13.70;99.90;;;;;;5054013;28;20450;-61
2023/06/27 03:17:53;;;;;;;2.90;2.07;;;13.70;99.90;;;;;;5053132;28;20480;-61
2023/06/27 03:20:21;;;;;;;5.47;2.10;;;13.70;99.90;;;;;;5053038;28;20482;-62
2023/06/27 03:22:48;;;;;;;8.67;2.07;;;13.70;99.90;;;;;;5052768;28;20440;-61
2023/06/27 03:25:15;;;;;;;5.07;2.13;;;13.80;99.90;;;;;;5053378;28;20440;-61
2023/06/27 03:27:42;;;;;;;4.03;2.40;;;13.80;99.90;;;;;;5053055;28;20440;-61
2023/06/27 03:30:09;;;;;;;6.30;3.03;;;13.80;99.90;;;;;;5052969;28;20460;-62
2023/06/27 03:32:36;;;;;;;7.00;2.40;;;13.80;99.90;;;;;;5053383;28;20803;-60
2023/06/27 03:35:03;;;;;;;5.60;3.70;;;13.90;99.90;;;;;;5053272;28;20444;-60
2023/06/27 03:37:33;;;;;;;3.70;2.40;;;13.90;99.90;;;;;;5052439;28;21001;-60
2023/06/27 03:40:00;;;;;;;4.80;2.13;;;13.90;99.90;;;;;;5053119;28;20444;-61
2023/06/27 03:42:27;;;;;;;3.37;1.83;;;13.90;99.90;;;;;;5052785;28;20443;-60
2023/06/27 03:44:54;;;;;;;3.03;1.83;;;14.00;99.90;;;;;;5053004;28;20440;-62
2023/06/27 03:47:20;;;;;;;5.30;2.70;;;14.00;99.90;;;;;;5052671;28;20463;-62
2023/06/27 03:49:47;;;;;;;4.70;2.00;;;14.10;99.90;;;;;;5052959;28;20444;-61
2023/06/27 03:52:14;;;;;;;4.00;2.53;;;14.10;99.90;;;;;;5052935;28;20448;-61
2023/06/27 03:54:42;;;;;;;3.20;1.70;;;14.20;99.90;;;;;;5052602;28;20458;-59
2023/06/27 03:57:09;;;;;;;4.93;1.80;;;14.50;99.90;;;;;;5052798;28;20826;-61
2023/06/27 03:59:36;;;;;;;3.10;1.73;;;15.00;99.90;;;;;;5052869;28;20448;-61
2023/06/27 04:02:02;;;;;;;3.23;1.90;;;15.50;99.90;;;;;;5052220;28;20466;-61
2023/06/27 04:04:29;;;;;;;5.80;2.13;;;16.00;99.90;;;;;;5052565;28;20547;-62
2023/06/27 04:06:56;;;;;;;2.57;1.80;;;16.30;98.30;;;;;;5052518;28;20452;-59
2023/06/27 04:11:58;;;;;;;3.83;1.70;;;16.90;95.60;;;;;;5090908;28;20984;-61
2023/06/27 04:14:25;;;;;;;5.97;1.87;;;17.20;94.70;;;;;;5090221;28;20930;-60
2023/06/27 04:16:52;;;;;;;2.90;1.90;;;17.50;93.10;;;;;;5090477;28;20442;-61
2023/06/27 04:19:19;;;;;;;2.73;1.63;;;17.70;92.00;;;;;;5090952;28;20446;-60
2023/06/27 04:21:46;;;;;;;5.50;1.73;;;18.00;90.50;;;;;;5090354;28;20455;-60
2023/06/27 04:24:12;;;;;;;5.20;1.93;;;18.20;87.20;;;;;;5090133;28;20442;-61
2023/06/27 04:26:42;;;;;;;2.50;1.73;;;18.20;85.10;;;;;;5090304;28;20438;-61
2023/06/27 04:29:10;;;;;;;3.33;1.73;;;18.30;82.60;;;;;;5090050;28;20453;-60
2023/06/27 04:31:37;;;;;;;5.70;2.07;;;18.30;81.60;;;;;;5090172;28;20497;-61
2023/06/27 04:34:04;;;;;;;3.90;1.70;;;18.50;80.90;;;;;;5090295;28;20439;-60
2023/06/27 04:36:31;;;;;;;2.47;1.93;;;18.70;78.80;;;;;;5090119;28;20469;-61
2023/06/27 04:38:57;;;;;;;2.60;1.70;;;18.90;77.20;;;;;;5089990;28;20439;-61
2023/06/27 04:41:28;;;;;;;2.80;1.80;;;18.80;75.10;;;;;;5089833;28;20482;-60
2023/06/27 04:43:57;;;;;;;5.00;2.10;;;18.90;75.30;;;;;;5090445;28;20770;-59
2023/06/27 04:46:28;;;;;;;4.03;1.80;;;19.00;74.60;;;;;;5089948;28;20447;-60
2023/06/27 04:48:56;;;;;;;5.60;2.07;;;19.10;73.00;;;;;;5090212;28;20470;-60
2023/06/27 04:51:23;;;;;;;1.93;1.50;;;19.20;72.60;;;;;;5089580;28;20506;-60
2023/06/27 04:53:50;;;;;;;3.50;2.07;;;19.20;71.70;;;;;;5090145;28;20455;-60
2023/06/27 04:56:17;;;;;;;2.83;1.90;;;19.40;72.00;;;;;;5090099;28;20813;-60
2023/06/27 04:58:44;;;;;;;3.30;2.07;;;19.50;70.90;;;;;;5089435;28;20963;-60
2023/06/27 05:01:11;;;;;;;2.63;1.57;;;19.60;70.20;;;;;;5089479;28;21029;-59
2023/06/27 05:03:41;;;;;;;5.03;1.90;;;19.70;70.10;;;;;;5089247;28;20441;-60
2023/06/27 05:06:08;;;;;;;5.80;2.20;;;19.70;69.20;;;;;;5089315;28;20449;-59
2023/06/27 05:08:36;;;;;;;7.63;2.40;;;19.70;68.70;;;;;;5089557;28;20438;-59
2023/06/27 05:11:03;;;;;;;3.17;1.87;;;19.70;68.60;;;;;;5089183;28;21007;-60
2023/06/27 05:13:30;;;;;;;7.70;2.10;;;19.70;68.40;;;;;;5089465;28;20460;-60
2023/06/27 05:15:58;;;;;;;2.57;1.70;;;19.70;68.30;;;;;;5089912;28;20917;-60
2023/06/27 05:18:26;;;;;;;6.47;2.43;;;19.80;68.00;;;;;;5090079;28;20442;-60
2023/06/27 05:20:55;;;;;;;4.30;3.00;;;19.80;68.00;;;;;;5089949;28;20470;-60
2023/06/27 05:23:22;;;;;;;5.70;2.13;;;19.90;67.80;;;;;;5075388;28;20992;-60
2023/06/27 05:25:50;;;;;;;2.83;2.10;;;20.10;67.10;;;;;;5075964;28;20439;-58
2023/06/27 05:28:16;;;;;;;3.20;2.10;;;20.00;65.90;;;;;;5075805;28;20448;-61
2023/06/27 05:30:43;;;;;;;4.50;2.17;;;20.00;66.10;;;;;;5075147;28;20476;-60
2023/06/27 05:33:10;;;;;;;3.43;2.17;;;19.90;65.40;;;;;;5075695;28;20447;-59
2023/06/27 05:35:37;;;;;;;5.07;2.30;;;19.90;65.40;;;;;;5075621;28;20443;-60
2023/06/27 05:38:05;;;;;;;4.50;2.23;;;19.80;65.70;;;;;;5076251;28;20516;-61
2023/06/27 05:40:32;;;;;;;2.80;1.60;;;19.90;65.70;;;;;;5075523;28;20485;-61
2023/06/27 05:42:59;;;;;;;3.17;1.60;;;19.90;65.40;;;;;;5075643;28;20538;-61
2023/06/27 05:45:26;;;;;;;5.10;2.40;;;20.00;65.10;;;;;;5075764;28;20879;-61
2023/06/27 05:47:53;;;;;;;3.07;2.20;;;20.10;64.50;;;;;;5075262;28;20815;-61
2023/06/27 05:50:19;;;;;;;4.27;2.03;;;20.10;64.30;;;;;;5074954;28;20485;-60
2023/06/27 05:52:46;;;;;;;3.50;2.00;;;20.20;64.00;;;;;;5075576;28;20449;-60
2023/06/27 05:55:15;;;;;;;3.63;1.90;;;20.20;63.80;;;;;;5074913;28;20479;-62
2023/06/27 05:57:41;;;;;;;5.83;1.80;;;20.20;63.50;;;;;;5075292;28;20463;-60
2023/06/27 06:00:10;;;;;;;3.73;1.90;;;20.10;63.40;;;;;;5075275;28;20470;-58
2023/06/27 06:02:38;;;;;;;3.70;1.90;;;20.00;63.30;;;;;;5075403;28;20459;-57
2023/06/27 06:05:07;;;;;;;5.20;1.60;;;20.10;63.60;;;;;;5075689;28;20853;-59
2023/06/27 06:07:34;;;;;;;2.63;2.00;;;20.10;63.30;;;;;;5074554;28;20447;-59
2023/06/27 06:10:00;;;;;;;4.13;1.90;;;20.10;62.70;;;;;;5075070;28;20829;-61
2023/06/27 06:12:28;;;;;;;6.10;3.50;;;20.10;62.70;;;;;;5075606;28;20432;-61
2023/06/27 06:14:55;;;;;;;4.60;2.07;;;20.10;62.70;;;;;;5074794;28;20455;-61
2023/06/27 06:17:22;;;;;;;3.67;1.77;;;20.00;63.10;;;;;;5074913;28;20439;-60
2023/06/27 06:19:49;;;;;;;3.50;2.10;;;20.00;63.10;;;;;;5074809;28;20439;-60
2023/06/27 06:22:16;;;;;;;5.30;2.10;;;19.90;62.90;;;;;;5074762;28;20523;-60
2023/06/27 06:24:42;;;;;;;4.20;1.97;;;19.90;62.80;;;;;;5074556;28;20949;-60
2023/06/27 06:27:09;;;;;;;3.03;1.63;;;19.70;62.70;;;;;;5074954;28;20450;-60
2023/06/27 06:29:37;;;;;;;5.87;2.03;;;19.60;63.10;;;;;;5074439;28;20828;-59
2023/06/27 06:32:05;;;;;;;2.27;1.40;;;19.60;63.10;;;;;;5074382;28;20982;-61
2023/06/27 06:34:32;;;;;;;3.53;2.07;;;19.50;63.40;;;;;;5073904;28;20468;-60
2023/06/27 06:36:59;;;;;;;6.13;2.30;;;19.40;63.70;;;;;;5074300;28;20441;-62
2023/06/27 06:39:26;;;;;;;3.10;2.23;;;19.30;64.20;;;;;;5074286;28;20458;-60
2023/06/27 06:41:52;;;;;;;3.77;2.03;;;19.20;64.50;;;;;;5074142;28;20558;-63
2023/06/27 06:44:19;;;;;;;3.50;1.87;;;19.20;64.50;;;;;;5074211;28;20529;-64
2023/06/27 06:46:47;;;;;;;4.67;2.50;;;19.30;64.50;;;;;;5074252;28;20982;-64
2023/06/27 06:49:14;;;;;;;3.90;1.73;;;19.40;64.50;;;;;;5073947;28;20474;-65
2023/06/27 06:51:41;;;;;;;5.50;2.30;;;19.40;64.20;;;;;;5073857;28;20570;-65
2023/06/27 06:54:08;;;;;;;3.97;1.90;;;19.50;64.20;;;;;;5073540;28;20469;-64
2023/06/27 06:56:35;;;;;;;3.80;1.93;;;19.50;64.10;;;;;;5073278;28;20831;-64
2023/06/27 06:59:02;;;;;;;3.60;2.37;;;19.60;64.50;;;;;;5073382;28;20451;-64
2023/06/27 07:01:29;;;;;;;2.43;1.70;;;19.50;64.50;;;;;;5073546;28;21005;-62
2023/06/27 07:03:57;;;;;;;2.80;1.70;;;19.50;64.80;;;;;;5073921;28;20446;-62
2023/06/27 07:06:24;;;;;;;5.30;1.90;;;19.60;64.90;;;;;;5073662;28;20448;-65
2023/06/27 07:08:52;;;;;;;2.50;1.60;;;19.60;64.70;;;;;;5073391;28;20737;-65
2023/06/27 07:11:19;;;;;;;6.07;2.17;;;19.60;65.50;;;;;;5072923;28;20880;-65
2023/06/27 07:13:45;;;;;;;2.40;2.00;;;19.50;65.00;;;;;;5073175;28;20444;-65
2023/06/27 07:16:12;;;;;;;7.50;2.37;;;19.50;65.40;;;;;;5073548;28;20449;-64
2023/06/27 07:18:39;;;;;;;3.73;2.27;;;19.60;65.70;;;;;;5073406;28;20509;-63
2023/06/27 07:21:07;;;;;;;3.80;2.03;;;19.60;65.90;;;;;;5073919;28;20463;-63
2023/06/27 07:23:36;;;;;;;4.63;1.80;;;19.60;66.20;;;;;;5073456;28;20949;-64
2023/06/27 07:26:03;;;;;;;2.60;2.20;;;19.70;66.20;;;;;;5073239;28;20945;-64
2023/06/27 07:28:29;;;;;;;2.20;1.83;;;19.90;65.70;;;;;;5073078;28;20933;-64
2023/06/27 07:30:56;;;;;;;10.10;2.80;;;20.00;65.50;;;;;;5073331;28;20501;-63
2023/06/27 07:33:23;;;;;;;5.70;2.10;;;20.00;65.00;;;;;;5073135;28;20475;-64
2023/06/27 07:35:50;;;;;;;2.70;1.60;;;20.00;64.40;;;;;;5072643;28;20454;-64
2023/06/27 07:38:18;;;;;;;4.73;2.07;;;20.10;64.20;;;;;;5072570;28;20526;-61
2023/06/27 07:40:45;;;;;;;2.13;1.80;;;20.20;63.70;;;;;;5072370;28;21052;-66
2023/06/27 07:43:12;;;;;;;2.60;1.73;;;20.40;63.40;;;;;;5072841;28;20445;-65
2023/06/27 07:45:39;;;;;;;6.70;2.43;;;20.50;62.40;;;;;;5072591;28;20443;-63
2023/06/27 07:48:06;;;;;;;3.40;1.73;;;20.60;61.50;;;;;;5072757;28;20502;-63
2023/06/27 07:50:33;;;;;;;3.10;2.73;;;20.50;61.50;;;;;;5072313;28;20474;-64
2023/06/27 07:53:00;;;;;;;2.53;2.00;;;20.30;62.00;;;;;;5072219;28;20452;-64
2023/06/27 07:55:28;;;;;;;3.83;2.73;;;20.10;62.60;;;;;;5073579;28;20447;-62
2023/06/27 07:57:55;;;;;;;4.27;1.73;;;19.90;63.40;;;;;;5072529;28;20453;-63
2023/06/27 08:00:22;;;;;;;2.83;1.80;;;20.00;63.90;;;;;;5072799;28;20463;-63
2023/06/27 08:02:49;;;;;;;2.50;1.80;;;20.10;63.50;;;;;;5072854;28;20479;-63
2023/06/27 08:05:16;;;;;;;5.47;3.13;;;20.20;63.10;;;;;;5072815;28;20447;-61
2023/06/27 08:07:43;;;;;;;3.40;1.70;;;20.30;63.00;;;;;;5072397;28;20454;-62
2023/06/27 08:10:11;;;;;;;3.80;1.63;;;20.30;62.80;;;;;;5072397;28;20471;-60
2023/06/27 08:12:39;;;;;;;5.00;1.83;;;20.30;62.40;;;;;;5072558;28;21049;-62
2023/06/27 08:15:07;;;;;;;3.33;1.57;;;20.40;60.40;;;;;;5072850;28;20446;-63
2023/06/27 08:17:34;;;;;;;3.00;1.47;;;20.40;59.60;;;;;;5073452;28;20439;-62
2023/06/27 08:20:01;;;;;;;5.73;1.80;;;20.50;59.20;;;;;;5073322;28;20447;-61
2023/06/27 08:22:28;;;;;;;7.37;1.93;;;20.60;59.30;;;;;;5072928;28;20444;-62
2023/06/27 08:24:55;;;;;;;2.93;1.80;;;20.70;59.20;;;;;;5072606;28;20443;-64
2023/06/27 08:27:22;;;;;;;5.00;2.37;;;20.80;58.80;;;;;;5072816;28;20439;-64
2023/06/27 08:29:50;;;;;;;3.63;1.57;;;21.00;58.40;;;;;;5072223;28;20855;-62
2023/06/27 08:32:17;;;;;;;4.10;1.87;;;21.10;57.80;;;;;;5072381;28;20474;-62
2023/06/27 08:34:44;;;;;;;3.27;1.90;;;21.20;57.40;;;;;;5072508;28;20966;-62
2023/06/27 08:37:11;;;;;;;3.80;1.60;;;21.10;57.00;;;;;;5072590;28;20467;-63
2023/06/27 08:39:37;;;;;;;4.20;1.47;;;21.00;56.40;;;;;;5072533;28;20532;-63
2023/06/27 08:42:05;;;;;;;7.40;2.03;;;21.10;55.90;;;;;;5072500;28;20460;-62
2023/06/27 08:44:31;;;;;;;4.90;1.63;;;21.30;55.10;;;;;;5072664;28;20444;-63
2023/06/27 08:47:03;;;;;;;2.53;1.20;;;21.50;54.10;;;;;;5072182;28;20556;-63
2023/06/27 08:49:33;;;;;;;3.80;1.70;;;21.50;53.80;;;;;;5072674;28;20435;-62
2023/06/27 08:52:02;;;;;;;3.13;1.47;;;21.50;53.50;;;;;;5072548;28;20484;-62
2023/06/27 08:54:34;;;;;;;1.60;1.23;;;21.50;53.40;;;;;;5072803;28;20449;-63
2023/06/27 08:57:02;;;;;;;4.27;1.30;;;21.50;53.10;;;;;;5073817;28;20437;-62
2023/06/27 08:59:33;;;;;;;3.60;1.80;;;21.30;52.90;;;;;;5077443;28;20486;-63
2023/06/27 09:02:03;;;;;;;3.70;1.60;;;21.20;53.00;;;;;;5077727;28;20539;-62
2023/06/27 09:04:32;;;;;;;2.40;1.70;;;21.40;52.80;;;;;;5076495;28;20447;-62
2023/06/27 09:07:00;;;;;;;3.90;1.40;;;21.50;52.40;;;;;;5077202;28;20450;-62
2023/06/27 09:09:28;;;;;;;3.33;1.80;;;21.60;52.40;;;;;;5076901;28;20439;-63
2023/06/27 09:11:55;;;;;;;1.87;1.10;;;21.70;52.10;;;;;;5076498;28;20488;-63
2023/06/27 09:14:22;;;;;;;2.60;1.30;;;21.70;51.50;;;;;;5075798;28;20444;-63
2023/06/27 09:16:49;;;;;;;3.57;1.53;;;21.70;51.20;;;;;;5075327;28;20831;-63
2023/06/27 09:19:18;;;;;;;2.27;1.37;;;21.70;51.30;;;;;;5075431;28;20450;-63
2023/06/27 09:21:47;;;;;;;3.30;1.10;;;21.80;51.10;;;;;;5075545;28;20465;-63
2023/06/27 09:24:14;;;;;;;4.50;1.53;;;22.00;50.90;;;;;;5075586;28;20449;-62
2023/06/27 09:26:41;;;;;;;3.30;1.53;;;22.20;50.70;;;;;;5075873;28;20527;-63
2023/06/27 09:29:08;;;;;;;3.33;1.50;;;22.20;50.40;;;;;;5076014;28;20442;-62
2023/06/27 09:31:35;;;;;;;2.50;1.80;;;22.10;50.30;;;;;;5075623;28;20486;-63
2023/06/27 09:34:05;;;;;;;6.10;1.80;;;21.90;50.00;;;;;;5075850;28;20449;-62
2023/06/27 09:36:35;;;;;;;2.80;1.30;;;21.60;50.60;;;;;;5075576;28;20448;-61
2023/06/27 09:39:03;;;;;;;3.43;1.20;;;21.30;51.00;;;;;;5075731;28;20454;-62
2023/06/27 09:41:41;;;;;;;1.90;1.10;;;21.40;51.30;;;;;;5075776;28;20462;-62
2023/06/27 09:44:12;;;;;;;5.57;1.33;;;21.60;51.20;;;;;;5075624;28;20440;-63
2023/06/27 09:46:40;;;;;;;3.33;1.50;;;21.70;50.70;;;;;;5075708;28;20433;-62
2023/06/27 09:49:07;;;;;;;2.17;1.00;;;21.90;50.10;;;;;;5075865;28;20483;-63
2023/06/27 09:51:36;;;;;;;2.73;1.07;;;22.30;49.60;;;;;;5075696;28;20485;-62
2023/06/27 09:54:03;;;;;;;2.50;1.10;;;22.60;48.70;;;;;;5075547;28;20520;-63
2023/06/27 09:56:31;;;;;;;2.90;1.47;;;22.70;48.30;;;;;;5075062;28;20523;-61
2023/06/27 09:58:58;;;;;;;3.40;1.83;;;22.50;48.20;;;;;;5075569;28;20452;-63
2023/06/27 10:01:25;;;;;;;2.60;1.30;;;22.60;48.40;;;;;;5075408;28;20473;-61
2023/06/27 10:03:52;;;;;;;3.23;1.20;;;22.80;47.80;;;;;;5075158;28;20438;-64
2023/06/27 10:06:19;;;;;;;3.20;1.10;;;23.00;47.30;;;;;;5075350;28;20537;-61
2023/06/27 10:08:48;;;;;;;2.00;1.53;;;22.80;46.40;;;;;;5075045;28;20523;-64
2023/06/27 10:11:15;;;;;;;3.37;1.43;;;22.60;46.80;;;;;;5075102;28;20484;-62
2023/06/27 10:13:42;;;;;;;5.10;1.77;;;22.40;47.20;;;;;;5070848;22;20933;-59
2023/06/27 10:16:10;;;;;;;2.10;0.90;;;22.20;47.60;;;;;;5035930;28;20460;-60
2023/06/27 10:18:36;;;;;;;2.77;1.50;;;22.30;47.40;;;;;;5036113;28;20449;-60
2023/06/27 10:21:04;;;;;;;4.53;1.40;;;22.50;47.00;;;;;;5035260;28;20448;-59
2023/06/27 10:23:32;;;;;;;3.30;1.20;;;22.50;46.40;;;;;;5035249;28;20590;-60
2023/06/27 10:26:01;;;;;;;2.07;1.10;;;22.60;45.50;;;;;;5035360;28;20941;-60
2023/06/27 10:28:30;;;;;;;2.53;1.20;;;22.70;45.10;;;;;;5035679;28;20818;-61
2023/06/27 10:30:58;;;;;;;2.07;1.60;;;22.80;45.00;;;;;;5039080;28;20448;-60
2023/06/27 10:33:28;;;;;;;2.40;1.00;;;22.80;44.80;;;;;;5038832;28;20567;-59
2023/06/27 10:36:01;;;;;;;3.60;1.60;;;22.60;45.00;;;;;;5038718;28;20955;-60
2023/06/27 10:38:36;;;;;;;4.13;1.13;;;22.70;45.50;;;;;;5037989;28;20451;-60
2023/06/27 10:41:33;;;;;;;2.03;1.37;;;22.90;45.20;;;;;;5038006;28;20436;-60
2023/06/27 10:44:10;;;;;;;2.33;1.37;;;23.00;44.40;;;;;;5036563;28;20511;-61
2023/06/27 10:46:37;;;;;;;2.97;1.47;;;22.90;43.90;;;;;;5034493;28;20535;-60
2023/06/27 10:49:06;;;;;;;2.33;1.43;;;23.00;44.30;;;;;;5036332;28;20455;-59
2023/06/27 10:51:38;;;;;;;1.73;1.00;;;23.20;44.20;;;;;;5034677;28;20502;-59
2023/06/27 10:54:16;;;;;;;3.43;1.57;;;23.30;44.00;;;;;;5034939;28;20523;-59
2023/06/27 10:56:46;;;;;;;1.70;1.03;;;23.30;44.00;;;;;;5034786;28;20543;-60
2023/06/27 10:59:15;;;;;;;2.50;0.90;;;23.40;43.50;;;;;;5034814;28;20506;-60
2023/06/27 11:01:43;;;;;;;2.97;1.40;;;23.40;42.70;;;;;;5034603;28;20459;-58
2023/06/27 11:04:17;;;;;;;2.37;1.10;;;23.50;42.60;;;;;;5034826;28;20498;-59
2023/06/27 11:06:45;;;;;;;2.17;1.10;;;23.60;42.20;;;;;;5036769;28;20536;-57
2023/06/27 11:09:14;;;;;;;5.20;1.20;;;23.80;41.70;;;;;;5035329;28;20482;-59
2023/06/27 11:11:41;;;;;;;2.80;1.27;;;23.90;41.10;;;;;;5034514;28;21008;-59
2023/06/27 11:14:35;;;;;;;1.83;0.90;;;24.10;41.00;;;;;;5035096;28;20470;-57
2023/06/27 11:17:05;;;;;;;4.10;1.20;;;24.20;40.70;;;;;;5034658;28;20451;-58
2023/06/27 11:19:32;;;;;;;1.40;1.10;;;24.20;40.70;;;;;;5035126;28;20445;-60
2023/06/27 11:22:00;;;;;;;3.17;1.40;;;24.20;41.00;;;;;;5039920;28;20445;-59
2023/06/27 11:24:27;;;;;;;3.57;1.37;;;24.30;41.20;;;;;;5034268;28;20445;-61
2023/06/27 11:26:54;;;;;;;1.80;1.17;;;24.40;41.50;;;;;;5034102;28;20444;-60
2023/06/27 11:29:21;;;;;;;1.50;1.23;;;24.60;41.70;;;;;;5034364;28;20789;-61
2023/06/27 11:31:51;;;;;;;1.73;0.97;;;24.50;41.40;;;;;;5034151;28;20477;-60
2023/06/27 11:34:18;;;;;;;2.40;1.50;;;24.60;41.20;;;;;;5034421;28;20967;-62
2023/06/27 11:36:45;;;;;;;3.00;1.50;;;24.90;41.00;;;;;;5033662;28;20457;-61
2023/06/27 11:39:12;;;;;;;3.10;1.40;;;25.10;40.50;;;;;;5036435;28;20452;-60
2023/06/27 11:41:40;;;;;;;1.70;1.43;;;25.20;40.40;;;;;;5034572;28;20450;-61
2023/06/27 11:44:09;;;;;;;2.93;1.37;;;24.90;41.10;;;;;;5033556;28;20512;-60
2023/06/27 11:46:36;;;;;;;4.37;1.60;;;24.40;41.90;;;;;;5033388;28;20455;-61
2023/06/27 11:49:04;;;;;;;1.70;1.20;;;24.00;42.70;;;;;;5033375;28;20458;-61
2023/06/27 11:51:41;;;;;;;2.80;1.10;;;23.70;43.10;;;;;;5033139;28;20460;-60
2023/06/27 11:54:08;;;;;;;5.33;1.27;;;23.40;43.50;;;;;;5033145;28;20488;-60
2023/06/27 11:56:37;;;;;;;5.67;1.77;;;23.20;43.50;;;;;;5033138;28;20449;-61
2023/06/27 11:59:06;;;;;;;3.23;1.30;;;23.10;43.40;;;;;;5033553;28;20449;-60
2023/06/27 12:01:33;;;;;;;4.80;1.50;;;23.10;43.30;;;;;;5033300;28;20452;-61
2023/06/27 12:04:01;;;;;;;4.07;1.20;;;23.50;42.70;;;;;;5033750;28;20475;-60
2023/06/27 12:06:31;;;;;;;2.43;1.37;;;24.20;41.50;;;;;;5033867;28;20458;-60
2023/06/27 12:08:58;;;;;;;2.27;1.17;;;24.40;40.90;;;;;;5033585;28;20875;-59
2023/06/27 12:11:29;;;;;;;2.13;1.23;;;24.30;41.00;;;;;;5034316;28;20451;-60
2023/06/27 12:13:56;;;;;;;2.87;1.37;;;24.20;41.20;;;;;;5036095;28;20524;-61
2023/06/27 12:16:24;;;;;;;2.60;1.20;;;24.40;41.10;;;;;;5033751;28;20439;-61
2023/06/27 12:18:51;;;;;;;2.77;1.10;;;25.00;40.10;;;;;;5033083;28;20456;-58
2023/06/27 12:21:18;;;;;;;1.70;1.10;;;25.90;39.00;;;;;;5032966;28;20973;-61
2023/06/27 12:23:47;;;;;;;1.70;1.27;;;26.10;37.90;;;;;;5033081;28;20463;-61
2023/06/27 12:26:13;;;;;;;2.40;1.50;;;25.80;38.10;;;;;;5033208;28;20451;-60
2023/06/27 12:28:55;;;;;;;1.90;1.27;;;25.50;38.30;;;;;;5033646;28;20451;-60
2023/06/27 12:31:22;;;;;;;1.97;1.37;;;25.00;37.30;;;;;;5032441;28;20443;-60
2023/06/27 12:33:50;;;;;;;1.33;1.07;;;24.70;37.20;;;;;;5036679;28;20480;-60
2023/06/27 12:36:18;;;;;;;3.00;0.90;;;25.00;37.10;;;;;;5037045;28;20477;-60
2023/06/27 12:38:46;;;;;;;1.57;1.00;;;25.40;36.40;;;;;;5036421;28;20457;-60
2023/06/27 12:41:13;;;;;;;1.57;1.27;;;25.30;36.50;;;;;;5036435;28;20449;-61
2023/06/27 12:43:40;;;;;;;2.13;1.33;;;24.90;37.40;;;;;;5036602;28;20465;-59
2023/06/27 12:46:06;;;;;;;1.40;1.10;;;24.80;38.00;;;;;;5036833;28;20491;-61
2023/06/27 12:48:33;;;;;;;2.93;1.33;;;25.00;38.00;;;;;;5036515;28;20454;-61
2023/06/27 12:51:02;;;;;;;2.57;1.33;;;25.10;37.60;;;;;;5036378;28;20451;-61